Time;durP1;ratioP1;P1;durP2;ratioP2;P2;SDS_P1;SDS_P2;PMS_P1;PMS_P2;Temp;Humidity;BMP_temperature;BMP_pressure;BME280_temperature;BME280_humidity;BME280_pressure;Samples;Min_cycle;Max_cycle;Signal;HPM_P1;HPM_P2
2022/04/25 00:01:37;;;;;;;10.52;9.73;;;;;;;;;;5076603;28;20062;-45
2022/04/25 00:04:03;;;;;;;7.43;6.93;;;;;;;;;;5071564;28;20032;-45
2022/04/25 00:06:29;;;;;;;8.55;7.95;;;;;;;;;;5076709;28;20043;-45
2022/04/25 00:08:54;;;;;;;7.47;6.93;;;;;;;;;;5077789;28;20032;-56
2022/04/25 00:11:20;;;;;;;7.35;6.85;;;;;;;;;;5074270;28;20032;-56
2022/04/25 00:13:46;;;;;;;8.20;7.60;;;;;;;;;;5077798;28;20489;-45
2022/04/25 00:16:11;;;;;;;8.38;7.68;;;;;;;;;;5076480;28;20525;-46
2022/04/25 00:18:37;;;;;;;6.88;6.28;;;;;;;;;;5077787;28;20074;-54
2022/04/25 00:21:02;;;;;;;8.52;7.93;;;;;;;;;;5079081;28;20084;-55
2022/04/25 00:23:28;;;;;;;7.22;6.65;;;;;;;;;;5079025;28;20143;-55
2022/04/25 00:25:54;;;;;;;7.28;6.78;;;;;;;;;;5078698;28;20059;-46
2022/04/25 00:28:19;;;;;;;7.82;7.22;;;;;;;;;;5074769;28;20583;-45
2022/04/25 00:30:47;;;;;;;8.07;7.28;;;;;;;;;;5073365;28;20024;-45
2022/04/25 00:33:13;;;;;;;6.90;6.35;;;;;;;;;;5077152;28;20055;-56
2022/04/25 00:35:38;;;;;;;7.60;6.97;;;;;;;;;;5079198;28;20036;-47
2022/04/25 00:38:03;;;;;;;7.72;7.07;;;;;;;;;;5078559;28;20039;-56
2022/04/25 00:40:29;;;;;;;9.48;8.77;;;;;;;;;;5073838;28;20051;-49
2022/04/25 00:42:54;;;;;;;9.27;8.57;;;;;;;;;;5077305;28;20092;-48
2022/04/25 00:45:20;;;;;;;8.70;8.10;;;;;;;;;;5077409;28;20028;-47
2022/04/25 00:47:46;;;;;;;8.65;7.85;;;;;;;;;;5075213;28;20593;-47
2022/04/25 00:50:13;;;;;;;8.07;7.47;;;;;;;;;;5074155;28;20137;-46
2022/04/25 00:52:39;;;;;;;9.35;8.65;;;;;;;;;;5075866;28;20039;-56
2022/04/25 00:55:07;;;;;;;7.95;7.38;;;;;;;;;;5077630;28;20029;-48
2022/04/25 00:57:33;;;;;;;7.70;7.10;;;;;;;;;;5078914;28;20074;-46
2022/04/25 00:59:59;;;;;;;8.13;7.45;;;;;;;;;;5074937;28;20043;-56
2022/04/25 01:02:26;;;;;;;8.52;7.93;;;;;;;;;;5076140;28;20111;-46
2022/04/25 01:04:54;;;;;;;8.20;7.38;;;;;;;;;;5076016;28;20028;-56
2022/04/25 01:07:19;;;;;;;9.35;8.65;;;;;;;;;;5074801;28;20111;-45
2022/04/25 01:09:44;;;;;;;9.73;9.02;;;;;;;;;;5072989;28;20096;-56
2022/04/25 01:12:10;;;;;;;8.77;8.10;;;;;;;;;;5077881;28;20032;-56
2022/04/25 01:14:35;;;;;;;8.48;7.88;;;;;;;;;;5079651;28;20032;-56
2022/04/25 01:17:02;;;;;;;10.35;8.50;;;;;;;;;;5072984;28;20656;-46
2022/04/25 01:19:28;;;;;;;10.88;10.10;;;;;;;;;;5072379;28;20028;-46
2022/04/25 01:21:59;;;;;;;10.82;10.02;;;;;;;;;;5076413;28;20034;-56
2022/04/25 01:27:17;;;;;;;12.52;10.10;;;;;;;;;;5075845;28;20039;-54
2022/04/25 01:29:54;;;;;;;10.57;9.88;;;;;;;;;;5077249;28;20040;-55
2022/04/25 01:32:22;;;;;;;9.95;9.15;;;;;;;;;;5080790;28;20071;-45
2022/04/25 01:34:48;;;;;;;9.77;9.07;;;;;;;;;;5077651;28;20039;-47
2022/04/25 01:37:16;;;;;;;10.98;10.10;;;;;;;;;;5077597;28;20033;-46
2022/04/25 01:39:42;;;;;;;11.15;10.35;;;;;;;;;;5076217;28;20641;-45
2022/04/25 01:42:07;;;;;;;10.45;9.57;;;;;;;;;;5078518;28;20028;-47
2022/04/25 01:44:34;;;;;;;10.95;10.13;;;;;;;;;;5077107;28;20036;-46
2022/04/25 01:47:00;;;;;;;11.18;10.38;;;;;;;;;;5075218;28;20029;-46
2022/04/25 01:49:25;;;;;;;9.75;9.15;;;;;;;;;;5074330;28;20178;-46
2022/04/25 01:51:51;;;;;;;10.32;9.63;;;;;;;;;;5072137;28;20028;-46
2022/04/25 01:54:23;;;;;;;10.07;9.40;;;;;;;;;;5076323;28;20057;-46
2022/04/25 01:56:48;;;;;;;10.73;10.02;;;;;;;;;;5077033;28;20039;-46
2022/04/25 01:59:13;;;;;;;10.10;9.40;;;;;;;;;;5074949;28;20036;-46
2022/04/25 02:01:39;;;;;;;10.30;9.63;;;;;;;;;;5074059;28;20032;-56
2022/04/25 02:04:04;;;;;;;10.30;9.60;;;;;;;;;;5075271;28;20378;-56
2022/04/25 02:06:29;;;;;;;9.80;9.10;;;;;;;;;;5075455;28;20032;-57
2022/04/25 02:08:55;;;;;;;10.23;9.52;;;;;;;;;;5075453;28;20031;-57
2022/04/25 02:11:21;;;;;;;9.43;8.73;;;;;;;;;;5072929;28;20115;-48
2022/04/25 02:13:50;;;;;;;12.55;11.35;;;;;;;;;;5076214;28;20449;-46
2022/04/25 02:16:16;;;;;;;11.55;10.55;;;;;;;;;;5072882;28;20034;-46
2022/04/25 02:18:41;;;;;;;10.85;10.15;;;;;;;;;;5071306;28;20036;-57
2022/04/25 02:21:07;;;;;;;12.45;11.65;;;;;;;;;;5074312;28;20032;-57
2022/04/25 02:23:33;;;;;;;11.63;10.73;;;;;;;;;;5076827;28;20401;-46
2022/04/25 02:25:59;;;;;;;11.60;10.90;;;;;;;;;;5076367;28;20134;-46
2022/04/25 02:28:24;;;;;;;13.23;12.23;;;;;;;;;;5076555;28;20107;-57
2022/04/25 02:30:52;;;;;;;13.38;12.48;;;;;;;;;;5072537;28;20043;-46
2022/04/25 02:33:18;;;;;;;11.45;10.65;;;;;;;;;;5075634;28;20378;-47
2022/04/25 02:35:44;;;;;;;11.20;10.27;;;;;;;;;;5074792;28;20042;-46
2022/04/25 02:38:10;;;;;;;11.68;10.90;;;;;;;;;;5075804;28;20031;-46
2022/04/25 02:40:35;;;;;;;11.30;10.50;;;;;;;;;;5069882;28;20025;-46
2022/04/25 02:43:01;;;;;;;11.25;10.45;;;;;;;;;;5076598;28;20404;-53
2022/04/25 02:45:27;;;;;;;11.18;10.32;;;;;;;;;;5072391;28;20522;-57
2022/04/25 02:47:53;;;;;;;11.82;10.93;;;;;;;;;;5075001;28;20036;-57
2022/04/25 02:50:19;;;;;;;9.35;8.75;;;;;;;;;;5074438;28;20032;-47
2022/04/25 02:52:44;;;;;;;10.93;10.13;;;;;;;;;;5076008;28;20115;-46
2022/04/25 02:55:10;;;;;;;9.18;8.50;;;;;;;;;;5074367;28;20107;-46
2022/04/25 02:57:35;;;;;;;9.88;8.90;;;;;;;;;;5076559;28;20043;-56
2022/04/25 03:00:00;;;;;;;8.85;8.25;;;;;;;;;;5071209;28;20036;-57
2022/04/25 03:02:26;;;;;;;9.23;8.52;;;;;;;;;;5072643;28;20413;-59
2022/04/25 03:04:51;;;;;;;10.02;9.30;;;;;;;;;;5073128;28;20029;-47
2022/04/25 03:07:17;;;;;;;10.48;9.68;;;;;;;;;;5076421;28;20562;-56
2022/04/25 03:09:42;;;;;;;9.55;8.70;;;;;;;;;;5073397;28;20434;-46
2022/04/25 03:12:09;;;;;;;8.90;8.20;;;;;;;;;;5072990;28;20090;-49
2022/04/25 03:14:34;;;;;;;9.95;9.05;;;;;;;;;;5073795;28;20664;-48
2022/04/25 03:17:01;;;;;;;8.65;8.05;;;;;;;;;;5074712;28;20103;-48
2022/04/25 03:19:26;;;;;;;9.55;8.85;;;;;;;;;;5070255;28;20025;-48
2022/04/25 03:21:51;;;;;;;7.57;6.97;;;;;;;;;;5072629;28;20108;-46
2022/04/25 03:24:17;;;;;;;9.18;8.43;;;;;;;;;;5076224;28;20060;-47
2022/04/25 03:26:42;;;;;;;9.65;8.85;;;;;;;;;;5073978;28;20056;-56
2022/04/25 03:29:08;;;;;;;9.18;8.48;;;;;;;;;;5073212;28;20035;-56
2022/04/25 03:31:33;;;;;;;8.75;8.05;;;;;;;;;;5074233;28;20114;-57
2022/04/25 03:33:59;;;;;;;10.18;9.43;;;;;;;;;;5074115;28;20032;-56
2022/04/25 03:36:24;;;;;;;8.65;7.95;;;;;;;;;;5072080;28;20033;-57
2022/04/25 03:38:52;;;;;;;7.70;7.10;;;;;;;;;;5072727;28;20024;-56
2022/04/25 03:41:18;;;;;;;8.00;7.30;;;;;;;;;;5074341;28;20032;-56
2022/04/25 03:43:44;;;;;;;9.13;8.43;;;;;;;;;;5070395;28;20039;-54
2022/04/25 03:46:09;;;;;;;9.15;8.45;;;;;;;;;;5073969;28;20031;-55
2022/04/25 03:48:35;;;;;;;8.57;7.97;;;;;;;;;;5073388;28;20102;-47
2022/04/25 03:51:00;;;;;;;10.75;9.93;;;;;;;;;;5072473;28;20050;-57
2022/04/25 03:53:25;;;;;;;11.38;10.52;;;;;;;;;;5072180;28;20115;-57
2022/04/25 03:58:35;;;;;;;12.13;11.32;;;;;;;;;;5074421;28;20028;-57
2022/04/25 04:01:02;;;;;;;11.82;10.98;;;;;;;;;;5072067;28;20069;-55
2022/04/25 04:03:28;;;;;;;14.05;13.05;;;;;;;;;;5073191;28;20050;-56
2022/04/25 04:05:54;;;;;;;11.68;10.88;;;;;;;;;;5072910;28;20043;-46
2022/04/25 04:08:19;;;;;;;11.82;10.90;;;;;;;;;;5074813;28;20040;-56
2022/04/25 04:10:45;;;;;;;11.93;11.20;;;;;;;;;;5070512;28;20032;-56
2022/04/25 04:13:11;;;;;;;12.18;11.38;;;;;;;;;;5073359;28;20048;-56
2022/04/25 04:15:36;;;;;;;12.35;11.35;;;;;;;;;;5074456;28;20039;-56
2022/04/25 04:18:04;;;;;;;12.73;11.90;;;;;;;;;;5072109;28;20040;-47
2022/04/25 04:20:30;;;;;;;11.07;10.27;;;;;;;;;;5074127;28;20077;-47
2022/04/25 04:22:55;;;;;;;12.95;11.95;;;;;;;;;;5073903;28;20044;-47
2022/04/25 04:25:22;;;;;;;11.40;10.60;;;;;;;;;;5072389;28;20033;-46
2022/04/25 04:27:48;;;;;;;11.38;10.55;;;;;;;;;;5072205;28;20437;-47
2022/04/25 04:30:13;;;;;;;10.77;10.05;;;;;;;;;;5072877;28;20024;-57
2022/04/25 04:32:40;;;;;;;25.60;10.98;;;;;;;;;;5073741;28;20681;-59
2022/04/25 04:35:09;;;;;;;9.75;9.05;;;;;;;;;;5072021;28;20067;-50
2022/04/25 04:37:35;;;;;;;10.13;9.32;;;;;;;;;;5071988;28;20037;-46
2022/04/25 04:42:47;;;;;;;10.75;9.95;;;;;;;;;;5073231;28;20028;-47
2022/04/25 04:45:13;;;;;;;10.00;9.35;;;;;;;;;;5071621;28;20042;-56
2022/04/25 04:47:39;;;;;;;10.73;9.93;;;;;;;;;;5072280;28;20044;-48
2022/04/25 04:50:14;;;;;;;10.05;9.13;;;;;;;;;;5069558;28;20036;-48
2022/04/25 04:52:40;;;;;;;11.10;10.20;;;;;;;;;;5072226;28;20047;-48
2022/04/25 04:55:06;;;;;;;11.07;10.18;;;;;;;;;;5074014;28;20051;-47
2022/04/25 04:57:31;;;;;;;9.50;8.80;;;;;;;;;;5076015;28;20394;-46
2022/04/25 04:59:57;;;;;;;9.32;8.63;;;;;;;;;;5075940;28;20025;-57
2022/04/25 05:02:23;;;;;;;9.60;8.90;;;;;;;;;;5078214;28;20031;-55
2022/04/25 05:04:49;;;;;;;10.95;10.00;;;;;;;;;;5074921;28;20028;-47
2022/04/25 05:07:15;;;;;;;10.48;9.55;;;;;;;;;;5073999;28;20047;-56
2022/04/25 05:09:40;;;;;;;9.52;8.73;;;;;;;;;;5078990;28;20032;-56
2022/04/25 05:12:06;;;;;;;9.52;8.80;;;;;;;;;;5078023;28;20036;-47
2022/04/25 05:14:31;;;;;;;9.05;8.35;;;;;;;;;;5075080;28;20092;-47
2022/04/25 05:16:57;;;;;;;10.88;9.98;;;;;;;;;;5070295;28;20032;-47
2022/04/25 05:19:22;;;;;;;9.35;8.65;;;;;;;;;;5074447;28;20036;-46
2022/04/25 05:21:48;;;;;;;9.48;8.68;;;;;;;;;;5078799;28;20064;-57
2022/04/25 05:24:13;;;;;;;10.23;9.02;;;;;;;;;;5073694;28;20123;-47
2022/04/25 05:26:39;;;;;;;9.30;8.60;;;;;;;;;;5077440;28;20476;-46
2022/04/25 05:29:05;;;;;;;10.82;9.77;;;;;;;;;;5075118;28;20036;-57
2022/04/25 05:31:30;;;;;;;7.25;6.75;;;;;;;;;;5079471;28;20263;-56
2022/04/25 05:33:56;;;;;;;8.20;7.50;;;;;;;;;;5074665;28;20024;-56
2022/04/25 05:36:21;;;;;;;8.68;7.88;;;;;;;;;;5073677;28;20029;-57
2022/04/25 05:38:46;;;;;;;7.97;7.38;;;;;;;;;;5076157;28;20106;-46
2022/04/25 05:41:12;;;;;;;8.35;7.65;;;;;;;;;;5061287;28;20037;-47
2022/04/25 05:43:38;;;;;;;7.03;6.53;;;;;;;;;;5071879;28;20045;-47
2022/04/25 05:46:04;;;;;;;8.05;7.35;;;;;;;;;;5073189;28;20028;-47
2022/04/25 05:53:59;;;;;;;7.28;6.68;;;;;;;;;;5078293;28;20021;-47
2022/04/25 05:56:24;;;;;;;7.45;6.90;;;;;;;;;;5074944;28;20039;-46
2022/04/25 05:58:50;;;;;;;8.13;7.35;;;;;;;;;;5075290;28;20039;-46
2022/04/25 06:01:15;;;;;;;8.23;7.57;;;;;;;;;;5077420;28;20036;-56
2022/04/25 06:03:40;;;;;;;7.00;6.50;;;;;;;;;;5074193;28;20051;-57
2022/04/25 06:06:06;;;;;;;7.38;6.70;;;;;;;;;;5073251;28;20024;-56
2022/04/25 06:08:31;;;;;;;7.45;6.85;;;;;;;;;;5079891;28;20028;-55
2022/04/25 06:10:57;;;;;;;7.25;6.68;;;;;;;;;;5072654;28;20033;-56
2022/04/25 06:13:25;;;;;;;8.95;7.20;;;;;;;;;;5075900;28;20403;-56
2022/04/25 06:15:51;;;;;;;7.65;6.90;;;;;;;;;;5077731;28;20031;-56
2022/04/25 06:18:17;;;;;;;7.88;7.22;;;;;;;;;;5076463;28;20032;-56
2022/04/25 06:20:42;;;;;;;8.35;7.60;;;;;;;;;;5073748;28;20090;-46
2022/04/25 06:23:08;;;;;;;7.68;6.97;;;;;;;;;;5072177;28;20263;-45
2022/04/25 06:25:33;;;;;;;7.78;6.95;;;;;;;;;;5071368;28;20109;-46
2022/04/25 06:28:00;;;;;;;8.57;7.88;;;;;;;;;;5072775;28;20042;-56
2022/04/25 06:30:29;;;;;;;10.18;9.27;;;;;;;;;;5076450;28;20032;-45
2022/04/25 06:32:55;;;;;;;9.32;8.45;;;;;;;;;;5074855;28;20056;-46
2022/04/25 06:35:21;;;;;;;8.10;7.40;;;;;;;;;;5073941;28;20044;-46
2022/04/25 06:37:46;;;;;;;9.25;8.45;;;;;;;;;;5076309;28;20035;-47
2022/04/25 06:40:12;;;;;;;10.50;9.52;;;;;;;;;;5077843;28;20404;-46
2022/04/25 06:42:38;;;;;;;10.23;9.48;;;;;;;;;;5077590;28;20101;-47
2022/04/25 06:45:04;;;;;;;10.30;9.52;;;;;;;;;;5076750;28;20033;-46
2022/04/25 06:47:30;;;;;;;9.05;8.35;;;;;;;;;;5076744;28;20031;-45
2022/04/25 06:49:55;;;;;;;10.85;10.00;;;;;;;;;;5075767;28;20054;-46
2022/04/25 06:52:20;;;;;;;12.90;11.80;;;;;;;;;;5077936;28;20029;-46
2022/04/25 06:54:46;;;;;;;12.85;11.88;;;;;;;;;;5075820;28;20035;-57
2022/04/25 06:57:12;;;;;;;13.55;12.60;;;;;;;;;;5077600;28;20028;-57
2022/04/25 06:59:38;;;;;;;9.10;8.45;;;;;;;;;;5075514;28;20048;-57
2022/04/25 07:02:03;;;;;;;8.27;7.60;;;;;;;;;;5079095;28;20032;-57
2022/04/25 07:04:29;;;;;;;7.88;7.28;;;;;;;;;;5072840;28;20521;-57
2022/04/25 07:06:54;;;;;;;9.27;8.57;;;;;;;;;;5076160;28;20432;-57
2022/04/25 07:09:19;;;;;;;8.00;7.30;;;;;;;;;;5077242;28;20097;-58
2022/04/25 07:11:46;;;;;;;10.80;8.38;;;;;;;;;;5074040;28;20646;-57
2022/04/25 07:14:19;;;;;;;10.25;9.55;;;;;;;;;;5078776;28;20035;-56
2022/04/25 07:16:51;;;;;;;7.70;7.15;;;;;;;;;;5072337;28;20054;-57
2022/04/25 07:19:16;;;;;;;7.85;7.25;;;;;;;;;;5072398;28;20033;-57
2022/04/25 07:29:53;;;;;;;10.35;9.00;;;;;;;;;;5075740;28;20036;-57
2022/04/25 07:32:20;;;;;;;7.50;6.95;;;;;;;;;;5073738;28;20035;-57
2022/04/25 07:34:47;;;;;;;7.82;7.22;;;;;;;;;;5072082;28;20024;-57
2022/04/25 07:37:16;;;;;;;7.60;7.00;;;;;;;;;;5074148;28;20040;-56
2022/04/25 07:39:42;;;;;;;6.63;6.13;;;;;;;;;;5077605;28;20028;-56
2022/04/25 07:42:08;;;;;;;7.65;7.10;;;;;;;;;;5072092;28;20396;-57
2022/04/25 07:44:33;;;;;;;8.27;7.57;;;;;;;;;;5074930;28;20036;-54
2022/04/25 07:46:59;;;;;;;7.60;6.90;;;;;;;;;;5075287;28;20033;-57
2022/04/25 07:49:26;;;;;;;5.95;5.55;;;;;;;;;;5072829;28;20036;-59
2022/04/25 07:51:51;;;;;;;6.20;5.70;;;;;;;;;;5073083;28;20609;-58
2022/04/25 07:54:18;;;;;;;7.28;6.72;;;;;;;;;;5073849;28;20075;-58
2022/04/25 07:56:45;;;;;;;7.07;6.47;;;;;;;;;;5075734;28;20032;-57
2022/04/25 07:59:10;;;;;;;7.18;6.63;;;;;;;;;;5072276;28;20535;-57
2022/04/25 08:01:36;;;;;;;7.47;6.97;;;;;;;;;;5074747;28;20119;-57
2022/04/25 08:04:01;;;;;;;8.10;7.30;;;;;;;;;;5070934;28;20055;-57
2022/04/25 08:06:26;;;;;;;7.75;7.20;;;;;;;;;;5075952;28;20051;-58
2022/04/25 08:08:53;;;;;;;6.85;6.35;;;;;;;;;;5075270;28;20055;-57
2022/04/25 08:11:20;;;;;;;10.10;9.25;;;;;;;;;;5074694;28;20024;-59
2022/04/25 08:19:14;;;;;;;12.25;11.45;;;;;;;;;;5071878;28;20429;-57
2022/04/25 08:21:41;;;;;;;6.53;5.95;;;;;;;;;;5075105;28;20032;-47
2022/04/25 08:24:07;;;;;;;9.80;9.07;;;;;;;;;;5077015;28;20446;-56
2022/04/25 08:26:32;;;;;;;9.25;8.65;;;;;;;;;;5074929;28;20046;-57
2022/04/25 08:28:59;;;;;;;11.82;10.65;;;;;;;;;;5074904;28;20228;-56
2022/04/25 08:31:25;;;;;;;11.57;10.88;;;;;;;;;;5078989;28;20477;-56
2022/04/25 08:33:51;;;;;;;10.40;7.07;;;;;;;;;;5074809;28;20067;-48
2022/04/25 08:36:18;;;;;;;6.55;6.05;;;;;;;;;;5077158;28;20036;-51
2022/04/25 08:38:44;;;;;;;9.82;9.18;;;;;;;;;;5078460;28;20115;-50
2022/04/25 08:41:16;;;;;;;25.55;24.02;;;;;;;;;;5077334;28;20036;-47
2022/04/25 08:43:42;;;;;;;11.32;10.50;;;;;;;;;;5079701;28;20036;-46
2022/04/25 08:46:11;;;;;;;25.27;23.80;;;;;;;;;;5079006;28;20032;-48
2022/04/25 08:48:41;;;;;;;26.67;25.23;;;;;;;;;;5079771;28;20127;-50
2022/04/25 08:51:10;;;;;;;32.10;30.30;;;;;;;;;;5072284;28;20044;-48
2022/04/25 08:53:37;;;;;;;21.40;20.20;;;;;;;;;;5078933;28;20039;-46
2022/04/25 08:56:03;;;;;;;24.35;22.95;;;;;;;;;;5078916;28;20038;-56
2022/04/25 08:58:31;;;;;;;31.60;29.90;;;;;;;;;;5076722;28;20165;-57
2022/04/25 09:00:58;;;;;;;25.58;24.15;;;;;;;;;;5076271;28;20120;-57
2022/04/25 09:03:24;;;;;;;24.65;23.27;;;;;;;;;;5075877;28;20032;-56
2022/04/25 09:05:50;;;;;;;10.30;9.55;;;;;;;;;;5085424;28;20031;-49
2022/04/25 09:08:16;;;;;;;14.20;9.85;;;;;;;;;;5080277;28;20666;-57
2022/04/25 09:10:43;;;;;;;13.52;12.63;;;;;;;;;;5077644;28;20067;-49
2022/04/25 09:13:10;;;;;;;11.77;11.07;;;;;;;;;;5075948;28;20031;-50
2022/04/25 09:15:36;;;;;;;12.35;11.55;;;;;;;;;;5076676;28;20078;-48
2022/04/25 09:18:01;;;;;;;16.45;15.50;;;;;;;;;;5077442;28;20021;-48
2022/04/25 09:20:27;;;;;;;16.15;15.15;;;;;;;;;;5074768;28;20081;-48
2022/04/25 09:22:52;;;;;;;28.38;26.85;;;;;;;;;;5075267;28;20114;-50
2022/04/25 09:25:18;;;;;;;13.38;12.57;;;;;;;;;;5074884;28;20109;-46
2022/04/25 09:27:44;;;;;;;13.43;12.52;;;;;;;;;;5075499;28;20331;-47
2022/04/25 09:30:18;;;;;;;12.07;11.18;;;;;;;;;;5078565;28;20098;-48
2022/04/25 09:32:45;;;;;;;12.85;12.05;;;;;;;;;;5077366;28;20047;-46
2022/04/25 09:35:24;;;;;;;11.45;10.65;;;;;;;;;;5073867;28;20063;-48
2022/04/25 09:37:49;;;;;;;14.38;13.52;;;;;;;;;;5074208;28;20031;-56
2022/04/25 09:40:19;;;;;;;9.30;8.70;;;;;;;;;;5077531;28;20029;-57
2022/04/25 09:42:46;;;;;;;11.23;10.43;;;;;;;;;;5078550;28;20226;-58
2022/04/25 09:45:12;;;;;;;12.88;12.07;;;;;;;;;;5078282;28;20032;-58
2022/04/25 09:47:37;;;;;;;12.70;11.90;;;;;;;;;;5076590;28;20035;-58
2022/04/25 09:50:04;;;;;;;12.77;11.93;;;;;;;;;;5078681;28;20073;-58
2022/04/25 09:52:35;;;;;;;16.02;15.05;;;;;;;;;;5075350;28;20125;-58
2022/04/25 09:55:11;;;;;;;12.95;12.15;;;;;;;;;;5077313;28;20020;-58
2022/04/25 09:57:37;;;;;;;13.07;12.27;;;;;;;;;;5077228;28;20536;-57
2022/04/25 10:00:03;;;;;;;11.43;10.73;;;;;;;;;;5075421;28;20024;-57
2022/04/25 10:02:29;;;;;;;13.85;13.05;;;;;;;;;;5075219;28;20044;-57
2022/04/25 10:04:54;;;;;;;14.93;13.93;;;;;;;;;;5076722;28;20462;-57
2022/04/25 10:07:22;;;;;;;13.55;12.75;;;;;;;;;;5080633;28;20116;-57
2022/04/25 10:09:49;;;;;;;13.65;12.75;;;;;;;;;;5074780;28;20039;-55
2022/04/25 10:12:17;;;;;;;12.90;12.10;;;;;;;;;;5074943;28;20366;-58
2022/04/25 10:14:43;;;;;;;14.73;13.70;;;;;;;;;;5080674;28;20051;-58
2022/04/25 10:17:10;;;;;;;12.95;12.15;;;;;;;;;;5074399;28;20103;-56
2022/04/25 10:19:37;;;;;;;14.93;14.02;;;;;;;;;;5075376;28;20123;-56
2022/04/25 10:22:04;;;;;;;15.45;14.55;;;;;;;;;;5073591;28;20067;-59
2022/04/25 10:24:32;;;;;;;15.38;14.38;;;;;;;;;;5074772;28;20028;-57
2022/04/25 10:27:08;;;;;;;13.45;12.55;;;;;;;;;;5073764;28;20406;-57
2022/04/25 10:29:36;;;;;;;11.90;11.13;;;;;;;;;;5076855;28;20967;-48
2022/04/25 10:32:04;;;;;;;14.43;13.52;;;;;;;;;;5078068;28;20044;-46
2022/04/25 10:35:04;;;;;;;14.20;13.13;;;;;;;;;;5077069;28;20097;-48
2022/04/25 10:37:36;;;;;;;10.13;9.45;;;;;;;;;;5075615;28;20032;-46
2022/04/25 10:40:07;;;;;;;10.13;9.43;;;;;;;;;;5075517;28;20365;-46
2022/04/25 10:45:55;;;;;;;10.13;9.45;;;;;;;;;;5072044;28;20051;-47
2022/04/25 10:48:22;;;;;;;9.15;8.35;;;;;;;;;;5072756;28;20629;-47
2022/04/25 10:51:09;;;;;;;10.32;9.65;;;;;;;;;;5074359;28;20035;-59
2022/04/25 10:53:56;;;;;;;15.90;14.90;;;;;;;;;;5075202;28;20103;-60
2022/04/25 10:56:21;;;;;;;16.05;15.15;;;;;;;;;;5069597;28;20039;-59
2022/04/25 10:59:26;;;;;;;14.07;13.23;;;;;;;;;;5070827;28;20036;-59
2022/04/25 11:01:52;;;;;;;15.30;14.40;;;;;;;;;;5076774;28;20034;-59
2022/04/25 11:04:19;;;;;;;16.00;15.00;;;;;;;;;;5072715;28;20040;-59
2022/04/25 11:06:47;;;;;;;17.55;16.52;;;;;;;;;;5073389;28;20024;-48
2022/04/25 11:09:41;;;;;;;18.05;16.95;;;;;;;;;;5072630;28;20508;-49
2022/04/25 11:12:07;;;;;;;21.05;19.85;;;;;;;;;;5072737;28;20655;-46
2022/04/25 11:14:33;;;;;;;17.10;16.10;;;;;;;;;;5072843;28;20032;-47
2022/04/25 11:17:12;;;;;;;13.35;12.52;;;;;;;;;;5074953;28;20366;-49
2022/04/25 11:19:48;;;;;;;14.05;13.13;;;;;;;;;;5074314;28;20114;-48
2022/04/25 11:22:41;;;;;;;15.00;14.15;;;;;;;;;;5064734;28;20028;-48
2022/04/25 11:25:24;;;;;;;15.90;14.90;;;;;;;;;;5075356;28;20056;-48
2022/04/25 11:27:59;;;;;;;14.23;13.38;;;;;;;;;;5076083;28;20129;-47
2022/04/25 11:30:25;;;;;;;14.73;13.82;;;;;;;;;;5065980;28;20514;-49
2022/04/25 11:32:51;;;;;;;13.02;12.23;;;;;;;;;;5073224;28;20043;-46
2022/04/25 11:35:23;;;;;;;13.95;13.05;;;;;;;;;;5075981;28;20704;-46
2022/04/25 11:37:48;;;;;;;12.75;11.95;;;;;;;;;;5075999;28;20064;-49
2022/04/25 11:40:14;;;;;;;12.20;11.35;;;;;;;;;;5072736;28;20127;-59
2022/04/25 11:42:40;;;;;;;12.50;11.70;;;;;;;;;;5072322;28;20040;-59
2022/04/25 11:45:06;;;;;;;17.75;16.65;;;;;;;;;;5076715;28;20028;-57
2022/04/25 11:47:33;;;;;;;13.80;13.00;;;;;;;;;;5071603;28;20032;-59
2022/04/25 11:50:01;;;;;;;11.50;10.77;;;;;;;;;;5071106;28;20033;-60
2022/04/25 11:52:26;;;;;;;12.95;12.15;;;;;;;;;;5072161;28;20089;-49
2022/04/25 11:54:53;;;;;;;10.82;10.02;;;;;;;;;;5071257;28;20723;-48
2022/04/25 11:57:19;;;;;;;10.23;9.55;;;;;;;;;;5076760;28;20373;-48
2022/04/25 11:59:44;;;;;;;14.68;13.68;;;;;;;;;;5074142;28;20016;-47
2022/04/25 12:02:10;;;;;;;12.73;11.93;;;;;;;;;;5075708;28;20132;-48
2022/04/25 12:04:36;;;;;;;13.38;12.60;;;;;;;;;;5076813;28;20136;-47
2022/04/25 12:07:07;;;;;;;16.73;15.77;;;;;;;;;;5080168;28;20225;-48
2022/04/25 12:17:51;;;;;;;11.30;10.60;;;;;;;;;;5081163;28;20127;-58
2022/04/25 12:20:29;;;;;;;20.30;19.17;;;;;;;;;;5079657;28;20044;-47
2022/04/25 12:22:57;;;;;;;22.00;20.77;;;;;;;;;;5082098;28;20466;-58
2022/04/25 12:25:28;;;;;;;14.30;13.45;;;;;;;;;;5083070;28;20093;-58
2022/04/25 12:27:59;;;;;;;;;;;;;;;;;;5078507;28;20031;-60
2022/04/25 12:30:25;;;;;;;13.50;12.70;;;;;;;;;;5079359;28;19912;-60
2022/04/25 12:33:05;;;;;;;14.13;13.27;;;;;;;;;;5080537;28;20461;-59
2022/04/25 12:35:30;;;;;;;18.52;17.50;;;;;;;;;;5079170;28;20308;-59
2022/04/25 12:37:55;;;;;;;11.73;11.02;;;;;;;;;;5079379;28;20730;-60
2022/04/25 12:40:21;;;;;;;11.93;11.13;;;;;;;;;;5079495;28;20020;-59
2022/04/25 12:42:47;;;;;;;12.00;11.25;;;;;;;;;;5076322;28;20124;-59
2022/04/25 12:45:14;;;;;;;12.80;12.02;;;;;;;;;;5076942;28;20035;-59
2022/04/25 12:47:44;;;;;;;21.30;20.13;;;;;;;;;;5074394;28;20032;-60
2022/04/25 12:50:09;;;;;;;11.47;10.67;;;;;;;;;;5079169;28;20809;-60
2022/04/25 12:52:50;;;;;;;11.57;10.88;;;;;;;;;;5081848;28;20262;-60
2022/04/25 12:55:16;;;;;;;14.32;13.43;;;;;;;;;;5077386;28;20095;-59
2022/04/25 12:57:54;;;;;;;13.38;12.57;;;;;;;;;;5075629;28;20115;-58
2022/04/25 13:00:19;;;;;;;14.07;13.18;;;;;;;;;;5069387;28;20044;-60
2022/04/25 13:02:45;;;;;;;12.40;11.65;;;;;;;;;;5076972;28;20386;-60
2022/04/25 13:05:13;;;;;;;12.35;11.55;;;;;;;;;;5074967;28;20097;-60
2022/04/25 13:07:42;;;;;;;13.25;12.45;;;;;;;;;;5075673;28;20124;-60
2022/04/25 13:10:19;;;;;;;13.27;12.48;;;;;;;;;;5072910;28;20099;-59
2022/04/25 13:12:48;;;;;;;14.35;13.52;;;;;;;;;;5071929;28;20028;-59
2022/04/25 13:15:20;;;;;;;16.55;15.57;;;;;;;;;;5072103;28;20032;-59
2022/04/25 13:17:46;;;;;;;13.05;12.25;;;;;;;;;;5073305;28;20519;-60
2022/04/25 13:20:13;;;;;;;18.10;16.98;;;;;;;;;;5079153;28;20028;-58
2022/04/25 13:22:42;;;;;;;15.50;14.60;;;;;;;;;;5080246;28;20038;-58
2022/04/25 13:25:08;;;;;;;15.63;14.73;;;;;;;;;;5074428;28;20508;-57
2022/04/25 13:27:37;;;;;;;16.77;15.77;;;;;;;;;;5074666;28;20425;-58
2022/04/25 13:30:07;;;;;;;22.33;21.02;;;;;;;;;;5076534;28;20117;-59
2022/04/25 13:32:34;;;;;;;15.32;14.32;;;;;;;;;;5077805;28;20401;-59
2022/04/25 13:34:59;;;;;;;15.93;14.63;;;;;;;;;;5075020;28;20444;-60
2022/04/25 13:37:28;;;;;;;14.52;13.63;;;;;;;;;;5078816;28;20021;-59
2022/04/25 13:39:53;;;;;;;13.90;13.02;;;;;;;;;;5078229;28;20047;-59
2022/04/25 13:42:19;;;;;;;15.30;14.40;;;;;;;;;;5074711;28;20076;-58
2022/04/25 13:44:44;;;;;;;13.90;13.02;;;;;;;;;;5078625;28;20033;-58
2022/04/25 13:47:10;;;;;;;14.13;13.32;;;;;;;;;;5080890;28;20055;-58
2022/04/25 13:49:37;;;;;;;14.40;13.50;;;;;;;;;;5075098;28;20039;-58
2022/04/25 13:52:02;;;;;;;15.18;14.27;;;;;;;;;;5080671;28;20111;-59
2022/04/25 13:54:28;;;;;;;16.70;15.73;;;;;;;;;;5077764;28;20119;-60
2022/04/25 13:56:53;;;;;;;13.68;12.88;;;;;;;;;;5079971;28;20028;-60
2022/04/25 13:59:18;;;;;;;20.08;18.88;;;;;;;;;;5075492;28;20038;-60
2022/04/25 14:01:44;;;;;;;15.23;14.30;;;;;;;;;;5076993;28;20046;-60
2022/04/25 14:04:09;;;;;;;14.48;13.65;;;;;;;;;;5075523;28;20037;-60
2022/04/25 14:06:34;;;;;;;12.65;11.85;;;;;;;;;;5075896;28;20017;-60
2022/04/25 14:09:01;;;;;;;14.43;13.55;;;;;;;;;;5076152;28;20024;-59
2022/04/25 14:11:29;;;;;;;13.70;12.80;;;;;;;;;;5077973;28;20024;-59
2022/04/25 14:13:56;;;;;;;12.50;11.73;;;;;;;;;;5076851;28;20496;-60
2022/04/25 14:16:21;;;;;;;10.80;10.00;;;;;;;;;;5072872;28;20158;-59
2022/04/25 14:18:47;;;;;;;11.90;11.07;;;;;;;;;;5072879;28;20035;-58
2022/04/25 14:21:12;;;;;;;11.43;10.70;;;;;;;;;;5072989;28;20063;-59
2022/04/25 14:23:38;;;;;;;13.90;13.07;;;;;;;;;;5077384;28;20035;-58
2022/04/25 14:26:04;;;;;;;14.20;13.35;;;;;;;;;;5075151;28;20024;-58
2022/04/25 14:28:30;;;;;;;12.98;12.13;;;;;;;;;;5075217;28;20032;-58
2022/04/25 14:30:56;;;;;;;15.50;14.60;;;;;;;;;;5077398;28;20121;-57
2022/04/25 14:33:22;;;;;;;17.38;16.38;;;;;;;;;;5077038;28;20051;-56
2022/04/25 14:35:50;;;;;;;12.85;12.05;;;;;;;;;;5079438;28;20032;-57
2022/04/25 14:38:22;;;;;;;12.90;12.05;;;;;;;;;;5076867;28;20094;-59
2022/04/25 14:40:54;;;;;;;10.68;10.00;;;;;;;;;;5077270;28;20475;-58
2022/04/25 14:43:21;;;;;;;10.45;9.75;;;;;;;;;;5076388;28;20028;-59
2022/04/25 14:45:47;;;;;;;9.48;8.88;;;;;;;;;;5077514;28;20035;-57
2022/04/25 14:48:13;;;;;;;10.35;9.68;;;;;;;;;;5079086;28;20040;-57
2022/04/25 14:56:07;;;;;;;9.52;8.93;;;;;;;;;;5075440;28;20024;-57
2022/04/25 14:58:33;;;;;;;9.63;9.02;;;;;;;;;;5076361;28;20039;-57
2022/04/25 15:00:58;;;;;;;11.95;11.15;;;;;;;;;;5076264;28;20032;-58
2022/04/25 15:03:23;;;;;;;10.40;9.77;;;;;;;;;;5073554;28;20115;-57
2022/04/25 15:05:49;;;;;;;10.65;9.95;;;;;;;;;;5071585;28;20135;-57
2022/04/25 15:08:15;;;;;;;10.80;10.10;;;;;;;;;;5076509;28;20029;-57
2022/04/25 15:10:42;;;;;;;10.00;9.40;;;;;;;;;;5074923;28;20020;-56
2022/04/25 15:13:09;;;;;;;9.95;9.35;;;;;;;;;;5074262;28;20028;-57